createdAt,value
2022-11-05T00:00:19.506Z,11.58
2022-11-05T00:03:04.947Z,11.64
2022-11-05T00:05:50.785Z,11.65
2022-11-05T00:08:36.327Z,11.64
2022-11-05T00:11:02.998Z,11.60
2022-11-05T00:13:48.469Z,11.54
2022-11-05T00:16:33.738Z,11.58
2022-11-05T00:19:10.151Z,11.59
2022-11-05T00:21:57.572Z,11.63
2022-11-05T00:24:43.489Z,11.57
2022-11-05T00:27:10.736Z,11.58
2022-11-05T00:29:37.308Z,11.55
2022-11-05T00:32:04.066Z,11.58
2022-11-05T00:34:30.635Z,11.56
2022-11-05T00:36:57.225Z,11.58
2022-11-05T00:39:23.812Z,11.57
2022-11-05T00:42:10.327Z,11.56
2022-11-05T00:44:55.358Z,11.51
2022-11-05T00:47:40.186Z,11.47
2022-11-05T00:50:06.953Z,11.44
2022-11-05T00:52:52.399Z,11.42
2022-11-05T00:55:18.957Z,11.42
2022-11-05T00:57:45.643Z,11.33
2022-11-05T01:00:12.806Z,11.36
2022-11-05T01:02:39.481Z,11.38
2022-11-05T01:05:06.392Z,11.39
2022-11-05T01:07:32.941Z,11.45
2022-11-05T01:09:59.518Z,11.43
2022-11-05T01:12:26.365Z,11.43
2022-11-05T01:14:52.971Z,11.42
2022-11-05T01:17:19.546Z,11.43
2022-11-05T01:19:46.070Z,11.53
2022-11-05T01:22:12.847Z,11.58
2022-11-05T01:24:39.449Z,11.60
2022-11-05T01:27:06.016Z,11.67
2022-11-05T01:29:32.576Z,11.60
2022-11-05T01:31:59.124Z,11.52
2022-11-05T01:34:25.660Z,11.45
2022-11-05T01:36:52.244Z,11.43
2022-11-05T01:39:18.781Z,11.45
2022-11-05T01:41:45.381Z,11.48
2022-11-05T01:44:52.206Z,11.49
2022-11-05T01:47:57.865Z,11.49
2022-11-05T01:50:24.532Z,11.41
2022-11-05T01:52:57.464Z,11.35
2022-11-05T01:55:29.278Z,11.36
2022-11-05T01:57:58.804Z,11.36
2022-11-05T02:00:25.554Z,11.34
2022-11-05T02:02:52.333Z,11.31
2022-11-05T02:05:19.049Z,11.19
2022-11-05T02:07:47.252Z,11.13
2022-11-05T02:10:17.911Z,11.18
2022-11-05T02:12:48.461Z,11.25
2022-11-05T02:15:21.480Z,11.20
2022-11-05T02:18:15.627Z,11.19
2022-11-05T02:20:52.860Z,11.16
2022-11-05T02:23:53.513Z,11.15
2022-11-05T02:26:23.088Z,11.19
2022-11-05T02:29:20.877Z,11.14
2022-11-05T02:32:20.671Z,11.11
2022-11-05T02:35:11.402Z,11.06
2022-11-05T02:37:45.138Z,11.06
2022-11-05T02:40:22.468Z,10.96
2022-11-05T02:43:03.299Z,10.97
2022-11-05T02:45:49.335Z,10.92
2022-11-05T02:48:30.084Z,10.95
2022-11-05T02:51:12.191Z,10.78
2022-11-05T02:54:07.306Z,10.83
2022-11-05T02:56:39.562Z,10.82
2022-11-05T02:59:06.206Z,10.69
2022-11-05T03:01:35.445Z,10.65
2022-11-05T03:04:06.891Z,10.70
2022-11-05T03:07:06.745Z,10.64
2022-11-05T03:09:39.251Z,10.68
2022-11-05T03:12:30.292Z,10.70
2022-11-05T03:14:59.749Z,10.63
2022-11-05T03:18:01.027Z,10.59
2022-11-05T03:20:34.349Z,10.53
2022-11-05T03:23:38.849Z,10.44
2022-11-05T03:26:24.169Z,10.36
2022-11-05T03:28:59.874Z,10.41
2022-11-05T03:31:29.054Z,10.41
2022-11-05T03:33:58.060Z,10.36
2022-11-05T03:36:33.100Z,10.33
2022-11-05T03:39:05.166Z,10.33
2022-11-05T03:41:35.077Z,10.38
2022-11-05T03:44:06.612Z,10.39
2022-11-05T03:46:38.700Z,10.29
2022-11-05T03:49:10.583Z,10.17
2022-11-05T03:51:55.624Z,10.27
2022-11-05T03:54:22.724Z,10.26
2022-11-05T03:57:00.913Z,10.16
2022-11-05T03:59:29.736Z,10.16
2022-11-05T04:01:57.506Z,10.12
2022-11-05T04:04:24.608Z,10.04
2022-11-05T04:07:09.741Z,10.04
2022-11-05T04:10:11.359Z,9.99
2022-11-05T04:12:56.419Z,9.93
2022-11-05T04:15:23.000Z,9.92
2022-11-05T04:17:49.578Z,9.94
2022-11-05T04:20:34.850Z,9.96
2022-11-05T04:23:22.259Z,9.99
2022-11-05T04:25:48.960Z,9.91
2022-11-05T04:28:15.998Z,9.95
2022-11-05T04:30:44.418Z,9.88
2022-11-05T04:33:15.088Z,9.91
2022-11-05T04:35:44.228Z,9.83
2022-11-05T04:38:18.749Z,9.80
2022-11-05T04:40:46.729Z,9.78
2022-11-05T04:43:19.197Z,9.83
2022-11-05T04:45:46.415Z,9.74
2022-11-05T04:48:13.113Z,9.73
2022-11-05T04:50:39.670Z,9.74
2022-11-05T04:53:06.349Z,9.77
2022-11-05T04:55:32.917Z,9.82
2022-11-05T04:57:59.514Z,9.87
2022-11-05T05:00:26.144Z,9.87
2022-11-05T05:02:52.787Z,9.88
2022-11-05T05:05:19.423Z,9.82
2022-11-05T05:07:45.991Z,9.87
2022-11-05T05:10:13.116Z,9.81
2022-11-05T05:12:39.758Z,9.82
2022-11-05T05:15:06.888Z,9.84
2022-11-05T05:17:33.526Z,9.79
2022-11-05T05:20:18.735Z,9.78
2022-11-05T05:22:51.719Z,9.80
2022-11-05T05:25:18.259Z,9.84
2022-11-05T05:27:44.874Z,9.84
2022-11-05T05:30:11.900Z,9.88
2022-11-05T05:32:38.439Z,9.86
2022-11-05T05:35:05.400Z,10.06
2022-11-05T05:37:32.080Z,10.09
2022-11-05T05:39:58.766Z,10.16
2022-11-05T05:42:25.348Z,10.16
2022-11-05T05:44:51.906Z,10.23
2022-11-05T05:47:18.488Z,10.35
2022-11-05T05:49:45.039Z,10.41
2022-11-05T05:52:11.679Z,10.45
2022-11-05T05:54:42.480Z,10.51
2022-11-05T05:57:09.891Z,10.60
2022-11-05T05:59:36.526Z,10.69
2022-11-05T06:02:03.234Z,10.69
2022-11-05T06:04:29.852Z,10.84
2022-11-05T06:06:56.382Z,10.82
2022-11-05T06:09:22.927Z,10.79
2022-11-05T06:11:49.552Z,10.79
2022-11-05T06:14:16.126Z,10.79
2022-11-05T06:16:42.736Z,10.79
2022-11-05T06:19:09.330Z,10.70
2022-11-05T06:21:40.146Z,10.70
2022-11-05T06:24:07.161Z,10.83
2022-11-05T06:26:34.187Z,10.87
2022-11-05T06:29:00.756Z,10.80
2022-11-05T06:31:27.371Z,10.79
2022-11-05T06:33:54.024Z,10.94
2022-11-05T06:36:20.978Z,11.02
2022-11-05T06:38:47.668Z,10.97
2022-11-05T06:41:14.359Z,11.07
2022-11-05T06:43:40.953Z,11.04
2022-11-05T06:46:08.104Z,11.17
2022-11-05T06:48:34.968Z,11.25
2022-11-05T06:51:01.930Z,11.29
2022-11-05T06:53:31.226Z,11.09
2022-11-05T06:55:57.809Z,11.08
2022-11-05T06:58:24.402Z,11.09
2022-11-05T07:00:51.042Z,10.96
2022-11-05T07:03:17.857Z,10.81
2022-11-05T07:05:48.135Z,10.86
2022-11-05T07:08:15.612Z,11.00
2022-11-05T07:10:42.144Z,11.05
2022-11-05T07:13:09.168Z,11.26
2022-11-05T07:15:37.031Z,11.19
2022-11-05T07:18:04.653Z,11.36
2022-11-05T07:20:34.341Z,11.44
2022-11-05T07:23:07.062Z,11.52
2022-11-05T07:25:34.795Z,11.63
2022-11-05T07:28:02.585Z,11.89
2022-11-05T07:30:30.153Z,12.11
2022-11-05T07:32:56.904Z,12.34
2022-11-05T07:35:24.263Z,12.49
2022-11-05T07:37:54.081Z,12.53
2022-11-05T07:40:22.350Z,12.55
2022-11-05T07:42:51.838Z,12.67
2022-11-05T07:45:18.995Z,12.76
2022-11-05T07:47:50.337Z,12.83
2022-11-05T07:50:18.743Z,12.91
2022-11-05T07:52:45.946Z,13.05
2022-11-05T07:55:13.328Z,13.15
2022-11-05T07:57:42.232Z,13.11
2022-11-05T08:00:20.427Z,13.33
2022-11-05T08:03:09.235Z,13.39
2022-11-05T08:05:38.410Z,13.56
2022-11-05T08:08:07.037Z,13.72
2022-11-05T08:10:34.194Z,13.77
2022-11-05T08:13:01.431Z,13.61
2022-11-05T08:15:28.250Z,13.83
2022-11-05T08:18:17.061Z,14.00
2022-11-05T08:20:44.962Z,14.22
2022-11-05T08:23:12.187Z,14.29
2022-11-05T08:25:39.876Z,14.37
2022-11-05T08:28:12.946Z,14.31
2022-11-05T08:30:40.091Z,14.29
2022-11-05T08:33:10.317Z,14.26
2022-11-05T08:35:38.147Z,14.45
2022-11-05T08:38:06.928Z,14.42
2022-11-05T08:40:35.476Z,14.58
2022-11-05T08:43:03.947Z,14.73
2022-11-05T08:45:31.212Z,14.76
2022-11-05T08:48:01.614Z,14.80
2022-11-05T08:50:28.595Z,14.98
2022-11-05T08:52:56.015Z,15.12
2022-11-05T08:55:23.220Z,15.20
2022-11-05T08:57:56.453Z,15.58
2022-11-05T09:00:23.464Z,15.78
2022-11-05T09:02:50.143Z,16.57
2022-11-05T09:05:16.912Z,16.74
2022-11-05T09:07:43.546Z,17.03
2022-11-05T09:10:10.717Z,17.25
2022-11-05T09:12:37.275Z,17.21
2022-11-05T09:15:04.407Z,17.05
2022-11-05T09:17:31.111Z,17.19
2022-11-05T09:19:57.708Z,17.56
2022-11-05T09:22:24.305Z,17.35
2022-11-05T09:24:50.923Z,17.34
2022-11-05T09:27:17.985Z,17.07
2022-11-05T09:29:44.807Z,16.98
2022-11-05T09:32:12.081Z,16.94
2022-11-05T09:34:38.841Z,17.11
2022-11-05T09:37:05.434Z,17.48
2022-11-05T09:39:32.085Z,17.60
2022-11-05T09:42:04.787Z,17.59
2022-11-05T09:44:44.961Z,17.59
2022-11-05T09:47:17.870Z,18.10
2022-11-05T09:49:50.128Z,19.49
2022-11-05T09:52:25.699Z,20.77
2022-11-05T09:54:54.363Z,20.94
2022-11-05T09:57:33.500Z,21.07
2022-11-05T10:00:05.281Z,20.75
2022-11-05T10:03:02.877Z,20.53
2022-11-05T10:05:30.121Z,20.45
2022-11-05T10:08:06.100Z,20.31
2022-11-05T10:10:41.547Z,20.29
2022-11-05T10:13:17.314Z,19.68
2022-11-05T10:15:55.595Z,19.40
2022-11-05T10:18:30.540Z,19.76
2022-11-05T10:20:57.336Z,20.10
2022-11-05T10:23:26.395Z,20.43
2022-11-05T10:26:06.598Z,20.63
2022-11-05T10:28:34.505Z,20.91
2022-11-05T10:31:07.926Z,21.15
2022-11-05T10:33:39.365Z,21.64
2022-11-05T10:36:10.447Z,22.12
2022-11-05T10:38:37.365Z,22.69
2022-11-05T10:41:35.980Z,23.14
2022-11-05T10:44:18.666Z,23.76
2022-11-05T10:47:23.457Z,23.57
2022-11-05T10:50:05.218Z,23.76
2022-11-05T10:52:35.019Z,23.86
2022-11-05T10:55:09.848Z,23.52
2022-11-05T10:57:39.717Z,24.28
2022-11-05T11:00:15.363Z,25.70
2022-11-05T11:02:44.254Z,26.93
2022-11-05T11:05:19.255Z,27.00
2022-11-05T11:08:03.737Z,27.72
2022-11-05T11:10:33.900Z,28.25
2022-11-05T11:13:00.547Z,28.06
2022-11-05T11:15:35.195Z,27.84
2022-11-05T11:18:33.491Z,29.63
2022-11-05T11:21:24.959Z,30.36
2022-11-05T11:24:00.562Z,30.92
2022-11-05T11:26:31.145Z,31.87
2022-11-05T11:29:20.750Z,31.90
2022-11-05T11:31:47.347Z,32.03
2022-11-05T11:34:26.388Z,32.43
2022-11-05T11:36:59.126Z,32.06
2022-11-05T11:39:30.426Z,31.90
2022-11-05T11:42:01.689Z,31.76
2022-11-05T11:44:32.758Z,31.92
2022-11-05T11:47:09.195Z,32.10
2022-11-05T11:49:41.726Z,31.54
2022-11-05T11:52:19.459Z,31.10
2022-11-05T11:54:46.040Z,31.43
2022-11-05T11:57:27.337Z,31.49
2022-11-05T12:00:08.509Z,31.15
2022-11-05T12:03:11.790Z,30.65
2022-11-05T12:06:10.822Z,29.50
2022-11-05T12:09:11.499Z,29.09
2022-11-05T12:12:03.002Z,28.59
2022-11-05T12:14:49.801Z,27.55
2022-11-05T12:17:50.521Z,26.97
2022-11-05T12:20:57.810Z,26.61
2022-11-05T12:23:46.060Z,26.36
2022-11-05T12:26:34.009Z,25.84
2022-11-05T12:32:05.797Z,26.44
2022-11-05T12:35:06.692Z,26.27
2022-11-05T12:37:36.288Z,26.84
2022-11-05T12:40:23.364Z,27.25
2022-11-05T12:43:31.154Z,26.93
2022-11-05T12:46:00.663Z,26.77
2022-11-05T12:48:36.841Z,26.61
2022-11-05T12:51:19.116Z,26.30
2022-11-05T12:53:48.688Z,26.03
2022-11-05T12:56:39.319Z,25.14
2022-11-05T12:59:27.532Z,24.85
2022-11-05T13:02:23.355Z,24.64
2022-11-05T13:05:21.368Z,24.57
2022-11-05T13:08:17.300Z,24.38
2022-11-05T13:10:51.791Z,24.53
2022-11-05T13:13:43.527Z,24.91
2022-11-05T13:16:30.678Z,25.57
2022-11-05T13:19:05.173Z,26.28
2022-11-05T13:21:32.505Z,26.70
2022-11-05T13:24:11.059Z,26.71
2022-11-05T13:26:51.024Z,26.67
2022-11-05T13:29:34.412Z,26.81
2022-11-05T13:32:21.177Z,25.97
2022-11-05T13:34:47.973Z,24.85
2022-11-05T13:37:39.172Z,24.03
2022-11-05T13:40:10.208Z,23.17
2022-11-05T13:42:51.687Z,22.55
2022-11-05T13:45:18.199Z,21.85
2022-11-05T13:47:59.949Z,21.52
2022-11-05T13:50:54.233Z,21.21
2022-11-05T13:53:32.750Z,20.88
2022-11-05T13:56:13.419Z,20.70
2022-11-05T13:59:04.251Z,20.54
2022-11-05T14:01:46.289Z,20.24
2022-11-05T14:04:45.934Z,20.04
2022-11-05T14:07:34.679Z,19.91
2022-11-05T14:10:24.261Z,19.79
2022-11-05T14:12:54.411Z,19.65
2022-11-05T14:15:29.679Z,19.58
2022-11-05T14:18:01.065Z,19.41
2022-11-05T14:20:30.616Z,19.37
2022-11-05T14:23:23.513Z,19.33
2022-11-05T14:25:59.738Z,19.29
2022-11-05T14:28:35.199Z,19.17
2022-11-05T14:31:03.833Z,19.09
2022-11-05T14:33:37.347Z,19.02
2022-11-05T14:36:37.327Z,18.96
2022-11-05T14:39:21.054Z,18.90
2022-11-05T14:41:54.612Z,18.89
2022-11-05T14:44:21.497Z,18.78
2022-11-05T14:46:52.093Z,18.55
2022-11-05T14:49:25.729Z,18.23
2022-11-05T14:51:56.061Z,18.11
2022-11-05T14:54:47.759Z,18.05
2022-11-05T14:57:35.556Z,17.97
2022-11-05T15:00:02.672Z,17.81
2022-11-05T15:02:56.142Z,17.88
2022-11-05T15:05:33.322Z,17.87
2022-11-05T15:08:20.261Z,17.78
2022-11-05T15:10:49.048Z,17.71
2022-11-05T15:13:30.872Z,17.65
2022-11-05T15:15:58.191Z,17.62
2022-11-05T15:18:29.775Z,17.73
2022-11-05T15:21:00.658Z,17.73
2022-11-05T15:23:45.680Z,17.76
2022-11-05T15:26:29.239Z,17.75
2022-11-05T15:28:56.348Z,17.63
2022-11-05T15:31:31.253Z,17.57
2022-11-05T15:34:09.936Z,17.50
2022-11-05T15:36:36.492Z,17.41
2022-11-05T15:39:29.404Z,17.38
2022-11-05T15:41:57.157Z,17.25
2022-11-05T15:44:38.765Z,17.18
2022-11-05T15:47:06.549Z,17.11
2022-11-05T15:49:33.255Z,17.10
2022-11-05T15:51:59.866Z,17.08
2022-11-05T15:54:30.882Z,17.08
2022-11-05T15:56:59.929Z,17.07
2022-11-05T15:59:29.109Z,17.02
2022-11-05T16:01:58.221Z,16.99
2022-11-05T16:04:27.612Z,16.84
2022-11-05T16:06:58.320Z,16.83
2022-11-05T16:09:27.438Z,16.89
2022-11-05T16:12:14.299Z,16.90
2022-11-05T16:14:41.899Z,16.98
2022-11-05T16:17:20.094Z,16.99
2022-11-05T16:19:47.212Z,17.01
2022-11-05T16:22:13.909Z,17.02
2022-11-05T16:24:40.612Z,17.02
2022-11-05T16:27:19.151Z,17.01
2022-11-05T16:29:57.392Z,16.93
2022-11-05T16:32:31.202Z,16.96
2022-11-05T16:35:04.275Z,16.95
2022-11-05T16:37:37.554Z,16.96
2022-11-05T16:40:16.701Z,16.97
2022-11-05T16:42:45.430Z,17.01
2022-11-05T16:45:14.080Z,16.99
2022-11-05T16:47:42.215Z,17.00
2022-11-05T16:50:17.612Z,17.04
2022-11-05T16:52:45.867Z,17.00
2022-11-05T16:55:13.535Z,16.97
2022-11-05T16:57:42.151Z,17.03
2022-11-05T17:00:14.191Z,16.91
2022-11-05T17:02:40.936Z,16.85
2022-11-05T17:05:17.678Z,16.82
2022-11-05T17:07:44.329Z,16.79
2022-11-05T17:10:11.174Z,16.79
2022-11-05T17:12:37.911Z,16.68
2022-11-05T17:15:29.534Z,16.64
2022-11-05T17:17:57.522Z,16.55
2022-11-05T17:20:40.659Z,16.57
2022-11-05T17:23:10.497Z,16.49
2022-11-05T17:25:38.103Z,16.34
2022-11-05T17:28:05.257Z,16.29
2022-11-05T17:30:32.457Z,16.17
2022-11-05T17:32:59.279Z,16.10
2022-11-05T17:35:26.572Z,15.98
2022-11-05T17:37:53.153Z,16.07
2022-11-05T17:40:25.304Z,15.99
2022-11-05T17:42:51.956Z,15.91
2022-11-05T17:45:18.835Z,15.71
2022-11-05T17:47:45.529Z,15.64
2022-11-05T17:50:14.157Z,15.59
2022-11-05T17:52:40.756Z,15.48
2022-11-05T17:55:16.499Z,15.42
2022-11-05T17:57:51.411Z,15.30
2022-11-05T18:00:20.984Z,15.21
2022-11-05T18:02:49.700Z,15.12
2022-11-05T18:05:20.682Z,15.16
2022-11-05T18:07:47.904Z,15.05
2022-11-05T18:10:15.258Z,15.06
2022-11-05T18:12:42.520Z,15.06
2022-11-05T18:15:09.784Z,14.94
2022-11-05T18:17:36.859Z,14.90
2022-11-05T18:20:10.647Z,14.81
2022-11-05T18:22:40.105Z,14.78
2022-11-05T18:25:08.096Z,14.82
2022-11-05T18:27:35.072Z,14.82
2022-11-05T18:30:01.873Z,14.79
2022-11-05T18:32:28.481Z,14.72
2022-11-05T18:34:55.016Z,14.72
2022-11-05T18:37:21.783Z,14.72
2022-11-05T18:39:52.071Z,14.79
2022-11-05T18:42:20.116Z,14.79
2022-11-05T18:44:47.252Z,14.73
2022-11-05T18:47:14.356Z,14.73
2022-11-05T18:49:40.994Z,14.77
2022-11-05T18:52:07.573Z,14.71
2022-11-05T18:54:34.219Z,14.79
2022-11-05T18:57:01.051Z,14.70
2022-11-05T18:59:37.711Z,14.74
2022-11-05T19:02:05.805Z,14.72
2022-11-05T19:04:32.508Z,14.73
2022-11-05T19:07:04.428Z,14.77
2022-11-05T19:09:32.307Z,14.78
2022-11-05T19:11:59.033Z,14.79
2022-11-05T19:14:25.688Z,14.77
2022-11-05T19:16:52.261Z,14.84
2022-11-05T19:19:19.058Z,14.75
2022-11-05T19:21:45.750Z,14.79
2022-11-05T19:24:16.753Z,14.79
2022-11-05T19:26:44.073Z,14.72
2022-11-05T19:29:10.798Z,14.74
2022-11-05T19:31:37.499Z,14.68
2022-11-05T19:34:05.439Z,14.69
2022-11-05T19:36:32.838Z,14.65
2022-11-05T19:39:02.109Z,14.62
2022-11-05T19:41:29.182Z,14.60
2022-11-05T19:43:58.089Z,14.63
2022-11-05T19:46:25.603Z,14.61
2022-11-05T19:48:52.290Z,14.57
2022-11-05T19:51:29.998Z,14.65
2022-11-05T19:53:58.134Z,14.62
2022-11-05T19:56:27.173Z,14.61
2022-11-05T19:58:54.480Z,14.61
2022-11-05T20:01:23.323Z,14.64
2022-11-05T20:03:50.496Z,14.69
2022-11-05T20:06:20.281Z,14.70
2022-11-05T20:09:15.146Z,14.74
2022-11-05T20:11:36.918Z,14.76
2022-11-05T20:14:04.948Z,14.82
2022-11-05T20:16:37.841Z,14.84
2022-11-05T20:19:10.172Z,14.98
2022-11-05T20:21:37.168Z,14.92
2022-11-05T20:24:05.410Z,14.88
2022-11-05T20:26:32.060Z,14.87
2022-11-05T20:28:58.871Z,14.72
2022-11-05T20:31:25.599Z,14.71
2022-11-05T20:33:53.349Z,14.67
2022-11-05T20:36:25.174Z,14.66
2022-11-05T20:38:57.990Z,14.63
2022-11-05T20:41:25.646Z,14.58
2022-11-05T20:43:52.346Z,14.58
2022-11-05T20:46:21.084Z,14.59
2022-11-05T20:48:47.956Z,14.57
2022-11-05T20:51:17.443Z,14.54
2022-11-05T20:53:44.346Z,14.50
2022-11-05T20:56:23.060Z,14.51
2022-11-05T20:58:50.635Z,14.49
2022-11-05T21:01:18.831Z,14.49
2022-11-05T21:03:47.072Z,14.42
2022-11-05T21:06:14.007Z,14.38
2022-11-05T21:08:41.148Z,14.39
2022-11-05T21:11:08.629Z,14.39
2022-11-05T21:13:35.853Z,14.43
2022-11-05T21:16:04.481Z,14.38
2022-11-05T21:18:32.400Z,14.37
2022-11-05T21:21:02.256Z,14.35
2022-11-05T21:23:28.961Z,14.37
2022-11-05T21:25:55.836Z,14.39
2022-11-05T21:28:22.719Z,14.36
2022-11-05T21:30:49.395Z,14.36
2022-11-05T21:33:18.135Z,14.37
2022-11-05T21:35:47.152Z,14.39
2022-11-05T21:38:16.374Z,14.43
2022-11-05T21:40:43.344Z,14.45
2022-11-05T21:43:10.001Z,14.54
2022-11-05T21:45:41.852Z,14.50
2022-11-05T21:48:09.259Z,14.48
2022-11-05T21:50:57.460Z,14.47
2022-11-05T21:53:43.176Z,14.46
2022-11-05T21:56:41.459Z,14.49
2022-11-05T21:59:30.836Z,14.48
2022-11-05T22:02:01.697Z,14.47
2022-11-05T22:04:34.963Z,14.47
2022-11-05T22:07:01.908Z,14.42
2022-11-05T22:09:28.828Z,14.46
2022-11-05T22:11:55.993Z,14.40
2022-11-05T22:14:22.944Z,14.37
2022-11-05T22:16:49.840Z,14.42
2022-11-05T22:19:16.867Z,14.41
2022-11-05T22:21:43.441Z,14.43
2022-11-05T22:24:10.034Z,14.39
2022-11-05T22:26:38.186Z,14.30
2022-11-05T22:29:05.544Z,14.30
2022-11-05T22:31:36.204Z,14.30
2022-11-05T22:34:04.479Z,14.23
2022-11-05T22:36:31.045Z,14.19
2022-11-05T22:38:57.580Z,14.06
2022-11-05T22:41:24.148Z,14.00
2022-11-05T22:43:51.160Z,14.01
2022-11-05T22:46:20.705Z,14.00
2022-11-05T22:48:47.939Z,13.93
2022-11-05T22:51:18.393Z,13.95
2022-11-05T22:53:45.472Z,13.96
2022-11-05T22:56:16.122Z,13.93
2022-11-05T22:58:43.325Z,13.82
2022-11-05T23:01:11.992Z,13.80
2022-11-05T23:03:40.221Z,13.76
2022-11-05T23:06:40.141Z,13.70
2022-11-05T23:09:43.947Z,13.71
2022-11-05T23:12:34.567Z,13.62
2022-11-05T23:15:05.616Z,13.55
2022-11-05T23:17:51.084Z,13.51
2022-11-05T23:20:41.520Z,13.53
2022-11-05T23:23:30.958Z,13.50
2022-11-05T23:25:59.065Z,13.59
2022-11-05T23:28:26.052Z,13.69
2022-11-05T23:31:10.969Z,13.65
2022-11-05T23:33:37.511Z,13.64
2022-11-05T23:36:22.700Z,13.66
2022-11-05T23:38:49.320Z,13.56
2022-11-05T23:41:34.520Z,13.58
2022-11-05T23:44:19.284Z,13.60
2022-11-05T23:47:04.692Z,13.66
2022-11-05T23:49:31.312Z,13.68
2022-11-05T23:51:57.887Z,13.74
2022-11-05T23:54:24.468Z,13.77
2022-11-05T23:56:51.023Z,13.79
2022-11-05T23:59:17.607Z,13.88
